createdAt,value
2023-05-19T00:00:04.340Z,11.2
2023-05-19T00:01:05.317Z,11.3
2023-05-19T00:02:06.378Z,11.4
2023-05-19T00:03:07.462Z,11.5
2023-05-19T00:04:08.318Z,11.5
2023-05-19T00:05:09.340Z,11.4
2023-05-19T00:06:10.392Z,11.4
2023-05-19T00:07:11.337Z,11.5
2023-05-19T00:08:12.317Z,11.4
2023-05-19T00:09:13.319Z,11.5
2023-05-19T00:10:14.379Z,11.5
2023-05-19T00:11:15.289Z,11.5
2023-05-19T00:12:16.324Z,11.6
2023-05-19T00:13:17.307Z,11.6
2023-05-19T00:14:18.317Z,11.6
2023-05-19T00:15:19.347Z,11.6
2023-05-19T00:16:20.322Z,11.6
2023-05-19T00:17:21.399Z,11.6
2023-05-19T00:18:22.293Z,11.5
2023-05-19T00:19:23.313Z,11.6
2023-05-19T00:20:24.315Z,11.6
2023-05-19T00:21:25.355Z,11.6
2023-05-19T00:22:26.338Z,11.6
2023-05-19T00:23:27.335Z,11.4
2023-05-19T00:24:28.340Z,11.2
2023-05-19T00:25:29.375Z,11.1
2023-05-19T00:26:30.373Z,11.1
2023-05-19T00:27:31.335Z,11.1
2023-05-19T00:28:32.315Z,11.2
2023-05-19T00:29:33.336Z,11.2
2023-05-19T00:30:34.471Z,11.3
2023-05-19T00:31:35.386Z,11.2
2023-05-19T00:32:36.400Z,11.1
2023-05-19T00:33:37.304Z,11.2
2023-05-19T00:34:38.361Z,11.3
2023-05-19T00:35:39.366Z,11.3
2023-05-19T00:36:40.340Z,11.4
2023-05-19T00:37:41.335Z,11.4
2023-05-19T00:38:42.341Z,11.5
2023-05-19T00:39:43.325Z,11.5
2023-05-19T00:40:44.356Z,11.5
2023-05-19T00:41:45.424Z,11.5
2023-05-19T00:42:46.337Z,11.5
2023-05-19T00:43:47.400Z,11.5
2023-05-19T00:44:48.337Z,11.5
2023-05-19T00:45:49.359Z,11.5
2023-05-19T00:46:50.393Z,11.4
2023-05-19T00:47:51.537Z,11.4
2023-05-19T00:48:52.320Z,11.3
2023-05-19T00:49:53.346Z,11.4
2023-05-19T00:50:54.326Z,11.4
2023-05-19T00:51:55.317Z,11.4
2023-05-19T00:52:56.397Z,11.3
2023-05-19T00:53:57.362Z,11.2
2023-05-19T00:54:58.334Z,11.3
2023-05-19T00:55:59.338Z,11.2
2023-05-19T00:57:00.326Z,11.1
2023-05-19T00:58:01.401Z,11.1
2023-05-19T00:59:02.345Z,11.1
2023-05-19T01:00:03.377Z,11
2023-05-19T01:01:05.144Z,11
2023-05-19T01:02:05.405Z,11
2023-05-19T01:03:06.408Z,11
2023-05-19T01:04:07.646Z,11.1
2023-05-19T01:05:08.357Z,11.1
2023-05-19T01:06:09.324Z,11.1
2023-05-19T01:07:10.336Z,11.1
2023-05-19T01:08:11.331Z,11
2023-05-19T01:09:12.376Z,11
2023-05-19T01:10:13.346Z,11
2023-05-19T01:11:14.358Z,11
2023-05-19T01:12:15.358Z,11
2023-05-19T01:13:16.382Z,11
2023-05-19T01:14:17.408Z,10.9
2023-05-19T01:15:18.330Z,10.9
2023-05-19T01:16:19.450Z,10.9
2023-05-19T01:17:20.364Z,10.9
2023-05-19T01:18:21.415Z,10.9
2023-05-19T01:19:22.414Z,10.9
2023-05-19T01:20:23.357Z,10.9
2023-05-19T01:21:24.378Z,10.9
2023-05-19T01:22:25.421Z,10.9
2023-05-19T01:23:26.362Z,10.8
2023-05-19T01:24:27.369Z,10.9
2023-05-19T01:25:28.342Z,10.9
2023-05-19T01:26:29.418Z,10.9
2023-05-19T01:27:30.358Z,10.9
2023-05-19T01:28:31.378Z,10.9
2023-05-19T01:29:32.358Z,10.9
2023-05-19T01:30:33.551Z,10.8
2023-05-19T01:31:34.430Z,10.8
2023-05-19T01:32:35.397Z,10.8
2023-05-19T01:37:00.484Z,10.8
2023-05-19T01:38:01.383Z,10.8
2023-05-19T01:39:02.355Z,10.8
2023-05-19T01:40:03.396Z,10.8
2023-05-19T01:41:04.342Z,10.8
2023-05-19T01:42:05.458Z,10.8
2023-05-19T01:43:06.407Z,10.8
2023-05-19T01:44:07.380Z,10.9
2023-05-19T01:45:08.379Z,10.9
2023-05-19T01:46:09.411Z,10.9
2023-05-19T01:47:10.444Z,10.9
2023-05-19T01:48:11.451Z,10.9
2023-05-19T01:49:12.483Z,11
2023-05-19T01:50:13.381Z,10.9
2023-05-19T01:51:14.387Z,11
2023-05-19T01:52:15.427Z,11
2023-05-19T01:53:16.418Z,11
2023-05-19T01:54:17.380Z,10.9
2023-05-19T01:55:18.379Z,10.9
2023-05-19T01:56:19.398Z,10.9
2023-05-19T01:57:20.447Z,10.9
2023-05-19T01:58:21.382Z,10.9
2023-05-19T01:59:22.403Z,10.9
2023-05-19T02:00:23.401Z,10.9
2023-05-19T02:01:24.444Z,11
2023-05-19T02:02:25.400Z,11
2023-05-19T02:03:26.400Z,11
2023-05-19T02:04:27.424Z,11
2023-05-19T02:05:28.405Z,11
2023-05-19T02:06:29.379Z,11
2023-05-19T02:07:30.410Z,11
2023-05-19T02:08:31.402Z,11
2023-05-19T02:09:32.387Z,11
2023-05-19T02:10:33.551Z,10.9
2023-05-19T02:11:34.399Z,10.9
2023-05-19T02:12:35.382Z,10.9
2023-05-19T02:13:36.426Z,10.9
2023-05-19T02:14:37.399Z,10.9
2023-05-19T02:15:38.423Z,10.8
2023-05-19T02:16:39.378Z,10.8
2023-05-19T02:17:40.385Z,10.8
2023-05-19T02:18:41.495Z,10.8
2023-05-19T02:19:42.450Z,10.8
2023-05-19T02:20:43.333Z,10.8
2023-05-19T02:21:44.397Z,10.8
2023-05-19T02:22:45.460Z,10.8
2023-05-19T02:23:46.396Z,10.9
2023-05-19T02:24:47.404Z,10.8
2023-05-19T02:25:48.377Z,10.8
2023-05-19T02:26:49.378Z,10.8
2023-05-19T02:27:50.424Z,10.8
2023-05-19T02:28:51.383Z,10.8
2023-05-19T02:29:52.416Z,10.8
2023-05-19T02:30:53.416Z,10.9
2023-05-19T02:31:59.384Z,10.9
2023-05-19T02:33:00.553Z,10.9
2023-05-19T02:34:01.390Z,10.8
2023-05-19T02:35:02.448Z,10.8
2023-05-19T02:36:03.406Z,10.9
2023-05-19T02:37:04.416Z,10.9
2023-05-19T02:38:05.550Z,10.9
2023-05-19T02:39:06.415Z,10.9
2023-05-19T02:40:07.395Z,10.9
2023-05-19T02:41:08.462Z,10.9
2023-05-19T02:42:09.424Z,10.9
2023-05-19T02:43:10.380Z,10.9
2023-05-19T02:44:11.453Z,10.9
2023-05-19T02:45:12.404Z,10.9
2023-05-19T02:46:13.477Z,10.9
2023-05-19T02:47:14.375Z,11
2023-05-19T02:48:15.407Z,11
2023-05-19T02:49:16.435Z,11
2023-05-19T02:50:17.426Z,11
2023-05-19T02:51:18.451Z,11
2023-05-19T02:52:19.436Z,11
2023-05-19T02:53:20.453Z,11
2023-05-19T02:54:21.417Z,11
2023-05-19T02:55:22.399Z,11
2023-05-19T02:56:23.425Z,11.1
2023-05-19T02:57:24.445Z,11.1
2023-05-19T02:58:25.488Z,11
2023-05-19T02:59:26.477Z,11
2023-05-19T03:00:27.430Z,11
2023-05-19T03:01:28.465Z,11
2023-05-19T03:02:29.560Z,11
2023-05-19T03:03:30.455Z,11
2023-05-19T03:04:32.073Z,11
2023-05-19T03:05:33.402Z,11
2023-05-19T03:06:34.416Z,11
2023-05-19T03:07:35.423Z,11.1
2023-05-19T03:08:36.438Z,11.1
2023-05-19T03:09:37.420Z,11.1
2023-05-19T03:10:38.416Z,11
2023-05-19T03:11:39.438Z,11
2023-05-19T03:12:40.439Z,10.8
2023-05-19T03:13:41.415Z,10.8
2023-05-19T03:14:42.425Z,10.8
2023-05-19T03:15:43.400Z,10.8
2023-05-19T03:16:44.520Z,10.9
2023-05-19T03:17:45.610Z,10.9
2023-05-19T03:18:46.528Z,10.9
2023-05-19T03:19:47.502Z,10.9
2023-05-19T03:20:48.397Z,10.9
2023-05-19T03:21:49.417Z,10.9
2023-05-19T03:22:50.422Z,10.9
2023-05-19T03:23:51.472Z,11
2023-05-19T03:24:52.420Z,10.9
2023-05-19T03:25:53.440Z,10.9
2023-05-19T03:26:54.440Z,10.9
2023-05-19T03:27:56.062Z,10.9
2023-05-19T03:28:57.439Z,10.9
2023-05-19T03:29:58.433Z,10.9
2023-05-19T03:30:59.445Z,11
2023-05-19T03:32:00.482Z,11
2023-05-19T03:33:01.638Z,11
2023-05-19T03:34:02.444Z,11.1
2023-05-19T03:35:03.457Z,11.1
2023-05-19T03:36:04.423Z,11.1
2023-05-19T03:37:05.520Z,11.2
2023-05-19T03:38:06.464Z,11.2
2023-05-19T03:39:07.478Z,11.2
2023-05-19T03:40:08.460Z,11.2
2023-05-19T03:41:09.447Z,11.2
2023-05-19T03:42:10.439Z,11.3
2023-05-19T03:43:11.450Z,11.3
2023-05-19T03:44:12.466Z,11.3
2023-05-19T03:45:13.440Z,11.4
2023-05-19T03:46:14.512Z,11.4
2023-05-19T03:47:15.441Z,11.4
2023-05-19T03:48:17.104Z,11.4
2023-05-19T03:49:17.461Z,11.5
2023-05-19T03:50:18.449Z,11.4
2023-05-19T03:51:19.490Z,11.5
2023-05-19T03:52:20.461Z,11.5
2023-05-19T03:53:21.463Z,11.5
2023-05-19T03:54:22.551Z,11.5
2023-05-19T03:55:23.442Z,11.5
2023-05-19T03:56:24.499Z,11.5
2023-05-19T03:57:25.444Z,11.6
2023-05-19T03:58:26.460Z,11.6
2023-05-19T03:59:27.423Z,11.6
2023-05-19T04:00:28.447Z,11.6
2023-05-19T04:01:29.441Z,11.6
2023-05-19T04:02:30.473Z,11.7
2023-05-19T04:03:31.456Z,11.7
2023-05-19T04:04:32.519Z,11.7
2023-05-19T04:05:33.448Z,11.7
2023-05-19T04:06:34.480Z,11.8
2023-05-19T04:07:35.436Z,11.8
2023-05-19T04:08:36.987Z,11.8
2023-05-19T04:09:38.484Z,11.7
2023-05-19T04:10:39.459Z,11.7
2023-05-19T04:11:40.471Z,11.7
2023-05-19T04:12:41.482Z,11.7
2023-05-19T04:13:42.480Z,11.7
2023-05-19T04:14:43.474Z,11.7
2023-05-19T04:15:44.499Z,11.7
2023-05-19T04:16:45.483Z,11.7
2023-05-19T04:17:46.468Z,11.8
2023-05-19T04:18:47.579Z,11.8
2023-05-19T04:19:48.466Z,11.9
2023-05-19T04:20:49.487Z,11.9
2023-05-19T04:21:50.497Z,11.9
2023-05-19T04:22:51.447Z,11.9
2023-05-19T04:23:52.490Z,12
2023-05-19T04:24:53.505Z,12
2023-05-19T04:25:54.422Z,12
2023-05-19T04:26:55.480Z,12
2023-05-19T04:27:56.463Z,12
2023-05-19T04:28:57.458Z,12
2023-05-19T04:29:58.463Z,12
2023-05-19T04:30:59.501Z,12
2023-05-19T04:32:00.490Z,12.1
2023-05-19T04:33:01.522Z,12.1
2023-05-19T04:34:02.513Z,12.1
2023-05-19T04:35:03.509Z,12.1
2023-05-19T04:36:04.466Z,12.1
2023-05-19T04:37:05.481Z,12.1
2023-05-19T04:38:06.449Z,12.1
2023-05-19T04:39:07.491Z,12
2023-05-19T04:40:08.521Z,12
2023-05-19T04:41:09.439Z,12.1
2023-05-19T04:42:10.700Z,12.1
2023-05-19T04:43:12.462Z,12.1
2023-05-19T04:44:13.517Z,12.1
2023-05-19T04:45:14.482Z,12.2
2023-05-19T04:46:15.486Z,12.2
2023-05-19T04:47:16.480Z,12.2
2023-05-19T04:48:17.482Z,12.2
2023-05-19T04:49:18.560Z,12.1
2023-05-19T04:50:19.438Z,12.2
2023-05-19T04:51:20.561Z,12.2
2023-05-19T04:52:21.484Z,12.1
2023-05-19T04:53:22.481Z,12
2023-05-19T04:54:23.548Z,12.1
2023-05-19T04:55:24.516Z,12.1
2023-05-19T04:56:25.488Z,12.1
2023-05-19T04:57:26.560Z,12.1
2023-05-19T04:58:27.520Z,12
2023-05-19T04:59:28.504Z,12
2023-05-19T05:00:29.508Z,11.8
2023-05-19T05:01:30.638Z,11.8
2023-05-19T05:02:31.472Z,11.9
2023-05-19T05:03:32.519Z,11.9
2023-05-19T05:04:33.464Z,12
2023-05-19T05:05:34.498Z,11.9
2023-05-19T05:06:35.551Z,11.8
2023-05-19T05:07:36.424Z,11.7
2023-05-19T05:08:37.483Z,11.7
2023-05-19T05:09:38.489Z,11.8
2023-05-19T05:10:39.595Z,11.8
2023-05-19T05:11:40.538Z,11.9
2023-05-19T05:12:41.474Z,12
2023-05-19T05:13:42.478Z,12
2023-05-19T05:14:43.493Z,12
2023-05-19T05:15:44.475Z,12.1
2023-05-19T05:16:45.571Z,11.9
2023-05-19T05:17:46.545Z,11.8
2023-05-19T05:18:47.505Z,11.7
2023-05-19T05:19:48.501Z,11.6
2023-05-19T05:20:49.513Z,11.7
2023-05-19T05:21:50.641Z,11.8
2023-05-19T05:22:51.544Z,11.9
2023-05-19T05:23:52.533Z,11.8
2023-05-19T05:24:53.535Z,11.7
2023-05-19T05:25:54.523Z,11.6
2023-05-19T05:26:55.477Z,11.5
2023-05-19T05:27:56.503Z,11.5
2023-05-19T05:29:02.508Z,11.6
2023-05-19T05:30:03.672Z,11.7
2023-05-19T05:31:04.436Z,11.8
2023-05-19T05:32:05.524Z,11.7
2023-05-19T05:33:06.614Z,11.6
2023-05-19T05:34:07.515Z,11.7
2023-05-19T05:35:08.554Z,11.7
2023-05-19T05:36:09.494Z,11.7
2023-05-19T05:37:10.664Z,11.8
2023-05-19T05:38:11.636Z,11.9
2023-05-19T05:39:12.495Z,12
2023-05-19T05:40:13.492Z,12.1
2023-05-19T05:41:14.556Z,12.1
2023-05-19T05:42:15.514Z,12.2
2023-05-19T05:43:16.514Z,12.3
2023-05-19T05:44:17.494Z,12.4
2023-05-19T05:45:18.513Z,12.4
2023-05-19T05:46:19.533Z,12.5
2023-05-19T05:47:20.495Z,12.5
2023-05-19T05:48:21.472Z,12.5
2023-05-19T05:49:22.520Z,12.5
2023-05-19T05:50:23.475Z,12.6
2023-05-19T05:51:24.537Z,12.6
2023-05-19T05:52:25.516Z,12.7
2023-05-19T05:53:26.594Z,12.7
2023-05-19T05:54:27.475Z,12.7
2023-05-19T05:55:28.474Z,12.8
2023-05-19T05:56:29.505Z,12.8
2023-05-19T05:57:30.543Z,12.9
2023-05-19T05:58:31.547Z,12.8
2023-05-19T05:59:32.517Z,12.8
2023-05-19T06:00:33.670Z,12.8
2023-05-19T06:01:35.556Z,12.9
2023-05-19T06:02:35.686Z,13
2023-05-19T06:03:36.495Z,13
2023-05-19T06:04:37.526Z,13
2023-05-19T06:05:38.722Z,12.9
2023-05-19T06:06:39.485Z,13
2023-05-19T06:07:40.501Z,13
2023-05-19T06:08:41.522Z,12.9
2023-05-19T06:09:42.521Z,12.9
2023-05-19T06:10:45.149Z,12.9
2023-05-19T06:11:44.536Z,12.8
2023-05-19T06:12:45.541Z,12.6
2023-05-19T06:13:46.539Z,12.4
2023-05-19T06:14:47.500Z,12.1
2023-05-19T06:15:48.550Z,11.7
2023-05-19T06:16:49.545Z,11.6
2023-05-19T06:17:50.721Z,11.7
2023-05-19T06:18:51.544Z,11.7
2023-05-19T06:19:52.528Z,11.7
2023-05-19T06:20:53.529Z,11.8
2023-05-19T06:21:54.536Z,11.8
2023-05-19T06:22:55.542Z,11.9
2023-05-19T06:23:56.538Z,11.9
2023-05-19T06:24:57.513Z,11.9
2023-05-19T06:25:58.543Z,11.8
2023-05-19T06:27:00.641Z,11.7
2023-05-19T06:28:01.562Z,11.5
2023-05-19T06:29:02.508Z,11.4
2023-05-19T06:30:03.513Z,11.4
2023-05-19T06:31:04.624Z,11.5
2023-05-19T06:32:05.602Z,11.6
2023-05-19T06:33:06.583Z,11.6
2023-05-19T06:34:07.551Z,11.7
2023-05-19T06:35:08.543Z,11.8
2023-05-19T06:36:09.523Z,12
2023-05-19T06:37:10.572Z,12
2023-05-19T06:38:11.520Z,11.9
2023-05-19T06:39:12.540Z,12
2023-05-19T06:40:13.525Z,12.1
2023-05-19T06:41:14.577Z,12.1
2023-05-19T06:42:15.583Z,12.2
2023-05-19T06:43:16.524Z,12.3
2023-05-19T06:44:18.717Z,12.4
2023-05-19T06:45:18.539Z,12.4
2023-05-19T06:46:19.519Z,12.5
2023-05-19T06:47:20.622Z,12.5
2023-05-19T06:48:21.520Z,12.5
2023-05-19T06:49:22.548Z,12.5
2023-05-19T06:50:23.544Z,12.4
2023-05-19T06:51:24.538Z,12.4
2023-05-19T06:52:25.560Z,12.2
2023-05-19T06:53:26.518Z,12.2
2023-05-19T06:54:27.546Z,12.2
2023-05-19T06:55:28.505Z,12.1
2023-05-19T06:56:29.573Z,12.1
2023-05-19T06:57:30.675Z,12.2
2023-05-19T06:58:31.566Z,12.2
2023-05-19T06:59:32.582Z,12.2
2023-05-19T07:00:33.747Z,11.9
2023-05-19T07:01:34.532Z,11.9
2023-05-19T07:02:35.900Z,11.9
2023-05-19T07:03:37.682Z,11.8
2023-05-19T07:04:38.583Z,11.7
2023-05-19T07:05:39.524Z,11.5
2023-05-19T07:06:40.539Z,11.5
2023-05-19T07:07:41.600Z,11.4
2023-05-19T07:08:42.528Z,11.5
2023-05-19T07:09:43.619Z,11.5
2023-05-19T07:10:44.580Z,11.5
2023-05-19T07:11:45.578Z,11.6
2023-05-19T07:12:46.631Z,11.5
2023-05-19T07:13:47.561Z,11.6
2023-05-19T07:14:48.678Z,11.6
2023-05-19T07:15:49.539Z,11.6
2023-05-19T07:16:50.557Z,11.7
2023-05-19T07:17:51.548Z,11.8
2023-05-19T07:18:52.647Z,11.7
2023-05-19T07:19:53.583Z,11.6
2023-05-19T07:20:54.504Z,11.6
2023-05-19T07:21:55.525Z,11.5
2023-05-19T07:22:56.619Z,11.5
2023-05-19T07:23:57.562Z,11.5
2023-05-19T07:24:58.546Z,11.5
2023-05-19T07:25:59.561Z,11.6
2023-05-19T07:27:00.561Z,11.4
2023-05-19T07:28:01.701Z,11.5
2023-05-19T07:29:02.581Z,11.5
2023-05-19T07:30:03.588Z,11.4
2023-05-19T07:31:04.565Z,11.3
2023-05-19T07:32:05.586Z,11.1
2023-05-19T07:33:06.611Z,11
2023-05-19T07:34:07.578Z,10.9
2023-05-19T07:35:08.577Z,11
2023-05-19T07:36:09.531Z,10.9
2023-05-19T07:37:10.583Z,10.7
2023-05-19T07:38:11.618Z,10.7
2023-05-19T07:39:12.624Z,10.7
2023-05-19T07:40:13.571Z,10.8
2023-05-19T07:41:14.561Z,10.9
2023-05-19T07:42:15.561Z,10.9
2023-05-19T07:43:16.640Z,11.1
2023-05-19T07:44:17.617Z,11.1
2023-05-19T07:45:18.538Z,11.1
2023-05-19T07:46:19.576Z,11.1
2023-05-19T07:47:20.601Z,11.1
2023-05-19T07:48:21.649Z,11.3
2023-05-19T07:49:22.562Z,11.3
2023-05-19T07:50:23.597Z,11.3
2023-05-19T07:51:24.577Z,11.5
2023-05-19T07:52:25.597Z,11.5
2023-05-19T07:53:27.197Z,11.7
2023-05-19T07:54:28.588Z,11.8
2023-05-19T07:55:29.584Z,11.9
2023-05-19T07:56:30.577Z,12.1
2023-05-19T07:57:31.597Z,12
2023-05-19T07:58:32.603Z,12
2023-05-19T07:59:33.635Z,12
2023-05-19T08:00:34.740Z,12.1
2023-05-19T08:01:35.578Z,12.2
2023-05-19T08:02:36.606Z,12
2023-05-19T08:03:37.719Z,11.9
2023-05-19T08:04:38.646Z,11.7
2023-05-19T08:05:39.536Z,11.6
2023-05-19T08:06:40.597Z,11.5
2023-05-19T08:07:41.600Z,11.6
2023-05-19T08:08:42.624Z,11.7
2023-05-19T08:09:43.556Z,11.8
2023-05-19T08:10:44.617Z,11.8
2023-05-19T08:11:45.596Z,11.8
2023-05-19T08:12:46.617Z,11.9
2023-05-19T08:13:47.618Z,12
2023-05-19T08:14:48.663Z,12
2023-05-19T08:15:49.595Z,11.9
2023-05-19T08:16:50.586Z,11.8
2023-05-19T08:17:51.629Z,11.8
2023-05-19T08:18:52.610Z,11.7
2023-05-19T08:19:53.609Z,11.8
2023-05-19T08:20:54.619Z,11.9
2023-05-19T08:21:55.582Z,12
2023-05-19T08:22:56.579Z,12
2023-05-19T08:23:57.600Z,12.1
2023-05-19T08:24:58.620Z,12.1
2023-05-19T08:25:59.643Z,12
2023-05-19T08:27:00.578Z,11.8
2023-05-19T08:28:01.644Z,11.7
2023-05-19T08:29:02.635Z,11.6
2023-05-19T08:30:03.627Z,11.5
2023-05-19T08:31:04.669Z,11.5
2023-05-19T08:32:05.611Z,11.4
2023-05-19T08:33:06.620Z,11.3
2023-05-19T08:34:07.621Z,11.3
2023-05-19T08:35:08.600Z,11.2
2023-05-19T08:36:09.601Z,11.2
2023-05-19T08:37:11.624Z,11.2
2023-05-19T08:38:12.600Z,11.2
2023-05-19T08:39:13.602Z,11.2
2023-05-19T08:40:14.563Z,11.4
2023-05-19T08:41:15.601Z,11.5
2023-05-19T08:42:16.602Z,11.7
2023-05-19T08:43:17.621Z,12
2023-05-19T08:44:19.087Z,12.2
2023-05-19T08:45:19.600Z,12.3
2023-05-19T08:46:20.612Z,12.1
2023-05-19T08:47:21.576Z,12
2023-05-19T08:48:22.698Z,12
2023-05-19T08:49:25.435Z,12
2023-05-19T08:50:24.617Z,11.9
2023-05-19T08:51:25.600Z,12
2023-05-19T08:52:26.643Z,12
2023-05-19T08:53:33.563Z,11.9
2023-05-19T08:54:28.633Z,12
2023-05-19T08:55:29.735Z,12.1
2023-05-19T08:56:30.599Z,12
2023-05-19T08:57:31.620Z,12
2023-05-19T08:58:32.578Z,12
2023-05-19T08:59:33.613Z,11.8
2023-05-19T09:00:35.008Z,11.7
2023-05-19T09:02:36.702Z,11.9
2023-05-19T09:03:37.679Z,11.9
2023-05-19T09:04:38.610Z,12
2023-05-19T09:05:39.629Z,12
2023-05-19T09:06:40.607Z,12.1
2023-05-19T09:07:41.591Z,12
2023-05-19T09:08:42.659Z,12.1
2023-05-19T09:09:43.796Z,12.1
2023-05-19T09:10:44.641Z,12.1
2023-05-19T09:11:45.657Z,12.3
2023-05-19T09:12:46.597Z,12.3
2023-05-19T09:13:47.599Z,12.3
2023-05-19T09:14:48.697Z,12.1
2023-05-19T09:15:49.620Z,12
2023-05-19T09:16:50.660Z,12.1
2023-05-19T09:17:51.653Z,12.1
2023-05-19T09:18:52.670Z,12.3
2023-05-19T09:19:53.660Z,12.5
2023-05-19T09:20:54.658Z,12.7
2023-05-19T09:21:55.638Z,12.7
2023-05-19T09:22:56.620Z,12.8
2023-05-19T09:23:57.619Z,12.8
2023-05-19T09:24:58.620Z,12.8
2023-05-19T09:25:59.619Z,12.8
2023-05-19T09:27:00.691Z,12.9
2023-05-19T09:28:01.641Z,12.9
2023-05-19T09:29:02.620Z,12.9
2023-05-19T09:30:03.732Z,13
2023-05-19T09:31:04.620Z,13
2023-05-19T09:32:05.647Z,13
2023-05-19T09:33:06.696Z,13
2023-05-19T09:34:07.616Z,13.1
2023-05-19T09:35:08.619Z,13.3
2023-05-19T09:36:09.597Z,13.3
2023-05-19T09:37:10.609Z,13.5
2023-05-19T09:38:11.679Z,13.6
2023-05-19T09:39:12.637Z,13.7
2023-05-19T09:40:13.707Z,13.7
2023-05-19T09:41:14.595Z,13.9
2023-05-19T09:42:15.657Z,13.9
2023-05-19T09:43:16.605Z,14
2023-05-19T09:44:17.634Z,14
2023-05-19T09:45:18.672Z,14
2023-05-19T09:46:19.633Z,13.9
2023-05-19T09:47:20.638Z,13.7
2023-05-19T09:48:21.658Z,13.6
2023-05-19T09:49:22.680Z,13.3
2023-05-19T09:50:23.684Z,13.3
2023-05-19T09:51:24.668Z,13.4
2023-05-19T09:52:25.697Z,13.5
2023-05-19T09:53:26.740Z,13.6
2023-05-19T09:54:27.660Z,13.8
2023-05-19T09:55:28.700Z,13.8
2023-05-19T09:56:29.677Z,13.9
2023-05-19T09:57:30.657Z,13.8
2023-05-19T09:58:31.641Z,13.8
2023-05-19T09:59:33.922Z,13.9
2023-05-19T10:00:34.039Z,14
2023-05-19T10:01:34.682Z,14.1
2023-05-19T10:02:35.682Z,14.2
2023-05-19T10:03:36.799Z,14.4
2023-05-19T10:04:37.655Z,14.6
2023-05-19T10:05:38.677Z,14.8
2023-05-19T10:06:39.636Z,14.9
2023-05-19T10:07:40.686Z,14.9
2023-05-19T10:08:41.677Z,15
2023-05-19T10:09:42.661Z,15
2023-05-19T10:10:43.652Z,14.8
2023-05-19T10:11:44.656Z,14.7
2023-05-19T10:12:45.702Z,14.7
2023-05-19T10:13:46.664Z,14.7
2023-05-19T10:14:47.655Z,14.8
2023-05-19T10:15:57.811Z,15
2023-05-19T10:16:49.719Z,15.2
2023-05-19T10:17:50.741Z,15.3
2023-05-19T10:18:51.722Z,15.6
2023-05-19T10:19:52.656Z,15.8
2023-05-19T10:20:53.718Z,15.9
2023-05-19T10:21:54.648Z,16
2023-05-19T10:22:55.650Z,15.8
2023-05-19T10:23:56.669Z,15.6
2023-05-19T10:24:57.695Z,15.5
2023-05-19T10:25:58.697Z,15.5
2023-05-19T10:26:59.757Z,15.6
2023-05-19T10:28:00.774Z,15.5
2023-05-19T10:29:01.656Z,15.5
2023-05-19T10:30:02.702Z,15.5
2023-05-19T10:31:03.689Z,15.5
2023-05-19T10:32:04.729Z,15.4
2023-05-19T10:33:05.729Z,15.2
2023-05-19T10:34:06.661Z,14.9
2023-05-19T10:35:07.679Z,14.6
2023-05-19T10:36:08.658Z,14.6
2023-05-19T10:37:09.655Z,14.7
2023-05-19T10:38:10.682Z,14.7
2023-05-19T10:39:11.714Z,14.7
2023-05-19T10:40:12.647Z,14.7
2023-05-19T10:41:13.701Z,14.7
2023-05-19T10:42:14.641Z,14.7
2023-05-19T10:43:15.716Z,14.6
2023-05-19T10:44:16.676Z,14.5
2023-05-19T10:45:17.636Z,14.6
2023-05-19T10:46:18.821Z,14.5
2023-05-19T10:47:19.703Z,14.6
2023-05-19T10:48:20.728Z,14.7
2023-05-19T10:49:21.734Z,14.8
2023-05-19T10:50:22.635Z,14.8
2023-05-19T10:51:23.678Z,14.9
2023-05-19T10:52:24.669Z,15
2023-05-19T10:53:25.949Z,15
2023-05-19T10:54:27.660Z,15.1
2023-05-19T10:55:28.636Z,15.2
2023-05-19T10:56:29.679Z,15.2
2023-05-19T10:57:30.698Z,15.2
2023-05-19T10:58:31.698Z,15.3
2023-05-19T10:59:32.728Z,15.3
2023-05-19T11:00:33.749Z,15.4
2023-05-19T11:01:34.718Z,15.5
2023-05-19T11:02:36.420Z,15.5
2023-05-19T11:03:37.722Z,15.5
2023-05-19T11:04:38.680Z,15.5
2023-05-19T11:05:39.721Z,15.4
2023-05-19T11:06:40.699Z,15.4
2023-05-19T11:07:41.728Z,15.4
2023-05-19T11:08:42.723Z,15.4
2023-05-19T11:09:43.683Z,15.4
2023-05-19T11:10:44.673Z,15.3
2023-05-19T11:11:45.699Z,15
2023-05-19T11:12:46.791Z,14.8
2023-05-19T11:13:47.722Z,14.7
2023-05-19T11:14:48.702Z,14.7
2023-05-19T11:15:49.680Z,14.7
2023-05-19T11:16:50.739Z,14.7
2023-05-19T11:17:51.729Z,14.7
2023-05-19T11:18:52.714Z,14.6
2023-05-19T11:19:53.686Z,14.6
2023-05-19T11:20:54.713Z,14.6
2023-05-19T11:21:55.704Z,14.6
2023-05-19T11:22:56.708Z,14.6
2023-05-19T11:23:57.760Z,14.6
2023-05-19T11:24:58.724Z,14.5
2023-05-19T11:25:59.721Z,14.4
2023-05-19T11:27:00.700Z,14.4
2023-05-19T11:28:01.699Z,14.3
2023-05-19T11:29:02.760Z,14.3
2023-05-19T11:30:03.718Z,14.4
2023-05-19T11:31:04.729Z,14.5
2023-05-19T11:32:05.724Z,14.6
2023-05-19T11:33:06.727Z,14.5
2023-05-19T11:34:07.680Z,14.4
2023-05-19T11:35:08.645Z,14.4
2023-05-19T11:36:09.712Z,14.4
2023-05-19T11:37:10.700Z,14.4
2023-05-19T11:38:11.759Z,14.2
2023-05-19T11:39:12.677Z,14
2023-05-19T11:40:13.835Z,13.6
2023-05-19T11:41:14.687Z,13.6
2023-05-19T11:42:15.685Z,13.6
2023-05-19T11:43:16.765Z,13.8
2023-05-19T11:44:17.697Z,13.9
2023-05-19T11:45:18.727Z,14
2023-05-19T11:46:19.685Z,14.2
2023-05-19T11:47:20.740Z,14.3
2023-05-19T11:48:21.779Z,14.5
2023-05-19T11:49:22.720Z,14.6
2023-05-19T11:50:23.751Z,14.7
2023-05-19T11:51:24.725Z,14.6
2023-05-19T11:52:25.698Z,14.6
2023-05-19T11:53:26.701Z,14.6
2023-05-19T11:54:27.681Z,14.5
2023-05-19T11:55:28.705Z,14.2
2023-05-19T11:56:29.738Z,14.2
2023-05-19T11:57:30.728Z,14.2
2023-05-19T11:58:31.701Z,14.2
2023-05-19T11:59:33.437Z,14.2
2023-05-19T12:00:33.691Z,14.3
2023-05-19T12:01:34.703Z,14.3
2023-05-19T12:02:35.821Z,14.3
2023-05-19T12:03:37.065Z,14.4
2023-05-19T12:04:37.731Z,14.4
2023-05-19T12:05:41.092Z,14.1
2023-05-19T12:06:39.763Z,14.1
2023-05-19T12:07:40.718Z,14.1
2023-05-19T12:08:41.797Z,14.2
2023-05-19T12:09:42.690Z,14.3
2023-05-19T12:10:43.736Z,14.4
2023-05-19T12:11:44.796Z,14.5
2023-05-19T12:12:45.785Z,14.5
2023-05-19T12:13:46.736Z,14.6
2023-05-19T12:14:47.698Z,14.6
2023-05-19T12:15:48.733Z,14.6
2023-05-19T12:16:49.773Z,14.7
2023-05-19T12:17:50.761Z,14.8
2023-05-19T12:18:51.779Z,14.8
2023-05-19T12:19:52.723Z,14.9
2023-05-19T12:20:53.731Z,14.9
2023-05-19T12:21:54.740Z,15
2023-05-19T12:22:55.717Z,15
2023-05-19T12:23:56.738Z,15
2023-05-19T12:24:57.718Z,15
2023-05-19T12:25:58.728Z,15
2023-05-19T12:26:59.710Z,14.9
2023-05-19T12:28:00.734Z,14.9
2023-05-19T12:29:01.737Z,14.9
2023-05-19T12:30:02.810Z,14.9
2023-05-19T12:31:03.743Z,14.8
2023-05-19T12:32:04.742Z,14.6
2023-05-19T12:33:05.765Z,14.6
2023-05-19T12:34:06.771Z,14.6
2023-05-19T12:35:07.717Z,14.7
2023-05-19T12:36:08.710Z,14.6
2023-05-19T12:37:09.704Z,14.6
2023-05-19T12:38:10.727Z,14.6
2023-05-19T12:39:11.857Z,14.6
2023-05-19T12:40:12.742Z,14.6
2023-05-19T12:41:13.716Z,14.6
2023-05-19T12:42:14.780Z,14.5
2023-05-19T12:43:15.760Z,14.5
2023-05-19T12:44:16.789Z,14.4
2023-05-19T12:45:17.686Z,14.3
2023-05-19T12:46:18.805Z,14.1
2023-05-19T12:47:19.734Z,13.9
2023-05-19T12:48:20.771Z,14
2023-05-19T12:49:21.740Z,14.1
2023-05-19T12:50:22.739Z,14
2023-05-19T12:51:23.784Z,14
2023-05-19T12:52:24.708Z,14
2023-05-19T12:53:25.738Z,14
2023-05-19T12:54:26.801Z,14
2023-05-19T12:55:27.768Z,14.1
2023-05-19T12:56:28.768Z,14.2
2023-05-19T12:57:29.783Z,14.2
2023-05-19T12:58:30.739Z,14.2
2023-05-19T12:59:38.246Z,14.2
2023-05-19T13:00:32.961Z,14.3
2023-05-19T13:01:33.897Z,14.3
2023-05-19T13:02:35.811Z,14.3
2023-05-19T13:03:36.971Z,14.4
2023-05-19T13:04:37.711Z,14.3
2023-05-19T13:05:38.717Z,14.2
2023-05-19T13:06:39.738Z,14.2
2023-05-19T13:07:40.752Z,14.2
2023-05-19T13:08:41.728Z,14.2
2023-05-19T13:09:42.771Z,14.2
2023-05-19T13:10:43.790Z,14.2
2023-05-19T13:11:44.730Z,14.1
2023-05-19T13:12:45.745Z,14
2023-05-19T13:13:46.757Z,14.1
2023-05-19T13:14:47.776Z,14
2023-05-19T13:15:49.047Z,14
2023-05-19T13:16:49.773Z,13.8
2023-05-19T13:17:50.843Z,13.9
2023-05-19T13:18:51.830Z,13.9
2023-05-19T13:19:52.903Z,13.9
2023-05-19T13:20:53.757Z,14
2023-05-19T13:21:54.759Z,14.1
2023-05-19T13:22:55.760Z,14.2
2023-05-19T13:23:56.771Z,14.3
2023-05-19T13:24:57.782Z,14.3
2023-05-19T13:25:58.769Z,14.4
2023-05-19T13:26:59.802Z,14.3
2023-05-19T13:28:00.759Z,14.3
2023-05-19T13:29:01.740Z,14.2
2023-05-19T13:30:02.920Z,14.1
2023-05-19T13:31:03.811Z,14
2023-05-19T13:32:04.760Z,14
2023-05-19T13:33:05.759Z,13.9
2023-05-19T13:34:06.852Z,13.8
2023-05-19T13:35:07.840Z,13.8
2023-05-19T13:36:08.758Z,13.7
2023-05-19T13:37:09.955Z,13.8
2023-05-19T13:38:10.982Z,13.9
2023-05-19T13:39:11.782Z,14.1
2023-05-19T13:40:13.785Z,14
2023-05-19T13:41:16.017Z,14.1
2023-05-19T13:42:15.790Z,13.9
2023-05-19T13:43:16.772Z,14
2023-05-19T13:44:17.751Z,14.1
2023-05-19T13:45:18.862Z,14.2